sensor_id;sensor_type;location;lat;lon;timestamp;P1;durP1;ratioP1;P2;durP2;ratioP2
18806;SDS011;9531;52.030;4.380;2023-02-13T00:00:38;39.97;;;18.30;;
18806;SDS011;9531;52.030;4.380;2023-02-13T00:03:05;37.75;;;18.20;;
18806;SDS011;9531;52.030;4.380;2023-02-13T00:05:34;40.30;;;19.55;;
18806;SDS011;9531;52.030;4.380;2023-02-13T00:08:01;33.88;;;17.23;;
18806;SDS011;9531;52.030;4.380;2023-02-13T00:10:28;37.80;;;17.75;;
18806;SDS011;9531;52.030;4.380;2023-02-13T00:12:55;35.33;;;17.17;;
18806;SDS011;9531;52.030;4.380;2023-02-13T00:15:22;35.95;;;17.88;;
18806;SDS011;9531;52.030;4.380;2023-02-13T00:17:53;32.03;;;16.85;;
18806;SDS011;9531;52.030;4.380;2023-02-13T00:20:21;38.20;;;17.85;;
18806;SDS011;9531;52.030;4.380;2023-02-13T00:22:50;29.40;;;14.55;;
18806;SDS011;9531;52.030;4.380;2023-02-13T00:25:17;36.47;;;18.77;;
18806;SDS011;9531;52.030;4.380;2023-02-13T00:27:44;36.42;;;16.70;;
18806;SDS011;9531;52.030;4.380;2023-02-13T00:30:11;36.55;;;17.58;;
18806;SDS011;9531;52.030;4.380;2023-02-13T00:32:39;29.55;;;15.60;;
18806;SDS011;9531;52.030;4.380;2023-02-13T00:35:07;40.42;;;19.63;;
18806;SDS011;9531;52.030;4.380;2023-02-13T00:37:34;32.65;;;17.58;;
18806;SDS011;9531;52.030;4.380;2023-02-13T00:40:03;38.58;;;18.40;;
18806;SDS011;9531;52.030;4.380;2023-02-13T00:42:30;31.40;;;16.70;;
18806;SDS011;9531;52.030;4.380;2023-02-13T00:44:58;31.77;;;16.17;;
18806;SDS011;9531;52.030;4.380;2023-02-13T00:47:25;39.13;;;18.70;;
18806;SDS011;9531;52.030;4.380;2023-02-13T00:49:52;39.17;;;18.17;;
18806;SDS011;9531;52.030;4.380;2023-02-13T00:52:20;34.25;;;17.02;;
18806;SDS011;9531;52.030;4.380;2023-02-13T00:54:47;37.38;;;19.73;;
18806;SDS011;9531;52.030;4.380;2023-02-13T00:57:15;31.20;;;15.63;;
18806;SDS011;9531;52.030;4.380;2023-02-13T00:59:43;37.25;;;17.85;;
18806;SDS011;9531;52.030;4.380;2023-02-13T01:02:12;36.45;;;19.83;;
18806;SDS011;9531;52.030;4.380;2023-02-13T01:04:43;35.03;;;18.15;;
18806;SDS011;9531;52.030;4.380;2023-02-13T01:07:10;35.45;;;18.65;;
18806;SDS011;9531;52.030;4.380;2023-02-13T01:09:38;41.15;;;19.60;;
18806;SDS011;9531;52.030;4.380;2023-02-13T01:12:06;37.88;;;19.13;;
18806;SDS011;9531;52.030;4.380;2023-02-13T01:14:34;38.50;;;19.85;;
18806;SDS011;9531;52.030;4.380;2023-02-13T01:17:01;38.13;;;19.90;;
18806;SDS011;9531;52.030;4.380;2023-02-13T01:19:28;37.22;;;19.15;;
18806;SDS011;9531;52.030;4.380;2023-02-13T01:21:55;42.33;;;20.38;;
18806;SDS011;9531;52.030;4.380;2023-02-13T01:24:22;39.65;;;19.83;;
18806;SDS011;9531;52.030;4.380;2023-02-13T01:26:49;40.72;;;19.55;;
18806;SDS011;9531;52.030;4.380;2023-02-13T01:29:17;39.20;;;20.48;;
18806;SDS011;9531;52.030;4.380;2023-02-13T01:31:45;40.95;;;19.95;;
18806;SDS011;9531;52.030;4.380;2023-02-13T01:34:12;39.78;;;19.35;;
18806;SDS011;9531;52.030;4.380;2023-02-13T01:36:40;40.60;;;19.27;;
18806;SDS011;9531;52.030;4.380;2023-02-13T01:39:09;34.13;;;18.38;;
18806;SDS011;9531;52.030;4.380;2023-02-13T01:41:38;39.75;;;20.23;;
18806;SDS011;9531;52.030;4.380;2023-02-13T01:47:07;40.28;;;19.67;;
18806;SDS011;9531;52.030;4.380;2023-02-13T01:49:34;36.47;;;18.63;;
18806;SDS011;9531;52.030;4.380;2023-02-13T01:52:02;38.60;;;19.20;;
18806;SDS011;9531;52.030;4.380;2023-02-13T01:54:29;39.60;;;19.63;;
18806;SDS011;9531;52.030;4.380;2023-02-13T01:56:59;39.03;;;18.67;;
18806;SDS011;9531;52.030;4.380;2023-02-13T01:59:31;37.50;;;19.20;;
18806;SDS011;9531;52.030;4.380;2023-02-13T02:02:00;42.13;;;20.80;;
18806;SDS011;9531;52.030;4.380;2023-02-13T02:04:30;41.40;;;19.77;;
18806;SDS011;9531;52.030;4.380;2023-02-13T02:07:00;42.13;;;19.40;;
18806;SDS011;9531;52.030;4.380;2023-02-13T02:09:36;40.08;;;19.75;;
18806;SDS011;9531;52.030;4.380;2023-02-13T02:12:07;40.40;;;20.77;;
18806;SDS011;9531;52.030;4.380;2023-02-13T02:14:37;37.97;;;19.13;;
18806;SDS011;9531;52.030;4.380;2023-02-13T02:17:07;40.20;;;19.73;;
18806;SDS011;9531;52.030;4.380;2023-02-13T02:19:47;41.55;;;20.02;;
18806;SDS011;9531;52.030;4.380;2023-02-13T02:22:37;41.15;;;19.80;;
18806;SDS011;9531;52.030;4.380;2023-02-13T02:28:43;37.60;;;19.08;;
18806;SDS011;9531;52.030;4.380;2023-02-13T02:34:20;38.40;;;19.60;;
18806;SDS011;9531;52.030;4.380;2023-02-13T02:36:58;38.22;;;19.40;;
18806;SDS011;9531;52.030;4.380;2023-02-13T02:39:38;41.40;;;20.30;;
18806;SDS011;9531;52.030;4.380;2023-02-13T02:42:17;45.03;;;20.92;;
18806;SDS011;9531;52.030;4.380;2023-02-13T02:44:53;40.17;;;20.58;;
18806;SDS011;9531;52.030;4.380;2023-02-13T02:47:29;42.15;;;21.20;;
18806;SDS011;9531;52.030;4.380;2023-02-13T02:50:24;38.78;;;19.55;;
18806;SDS011;9531;52.030;4.380;2023-02-13T02:53:02;39.75;;;19.67;;
18806;SDS011;9531;52.030;4.380;2023-02-13T02:55:36;38.95;;;19.95;;
18806;SDS011;9531;52.030;4.380;2023-02-13T02:58:08;42.50;;;19.67;;
18806;SDS011;9531;52.030;4.380;2023-02-13T03:00:58;39.10;;;19.20;;
18806;SDS011;9531;52.030;4.380;2023-02-13T03:03:47;35.53;;;17.58;;
18806;SDS011;9531;52.030;4.380;2023-02-13T03:06:34;40.33;;;19.98;;
18806;SDS011;9531;52.030;4.380;2023-02-13T03:09:09;39.97;;;19.10;;
18806;SDS011;9531;52.030;4.380;2023-02-13T03:11:58;40.65;;;20.33;;
18806;SDS011;9531;52.030;4.380;2023-02-13T03:14:45;41.80;;;21.25;;
18806;SDS011;9531;52.030;4.380;2023-02-13T03:17:26;37.00;;;19.48;;
18806;SDS011;9531;52.030;4.380;2023-02-13T03:20:14;34.90;;;18.15;;
18806;SDS011;9531;52.030;4.380;2023-02-13T03:23:10;38.38;;;19.33;;
18806;SDS011;9531;52.030;4.380;2023-02-13T03:25:48;37.83;;;19.35;;
18806;SDS011;9531;52.030;4.380;2023-02-13T03:28:38;44.25;;;20.40;;
18806;SDS011;9531;52.030;4.380;2023-02-13T03:31:30;36.65;;;19.42;;
18806;SDS011;9531;52.030;4.380;2023-02-13T03:34:01;39.15;;;19.52;;
18806;SDS011;9531;52.030;4.380;2023-02-13T03:36:36;41.40;;;20.27;;
18806;SDS011;9531;52.030;4.380;2023-02-13T03:39:32;39.88;;;20.45;;
18806;SDS011;9531;52.030;4.380;2023-02-13T03:42:10;33.33;;;17.63;;
18806;SDS011;9531;52.030;4.380;2023-02-13T03:44:43;42.65;;;20.30;;
18806;SDS011;9531;52.030;4.380;2023-02-13T03:47:34;39.55;;;19.52;;
18806;SDS011;9531;52.030;4.380;2023-02-13T03:50:06;40.35;;;18.85;;
18806;SDS011;9531;52.030;4.380;2023-02-13T03:52:44;41.58;;;21.05;;
18806;SDS011;9531;52.030;4.380;2023-02-13T03:55:15;38.13;;;17.95;;
18806;SDS011;9531;52.030;4.380;2023-02-13T03:58:04;38.50;;;18.55;;
18806;SDS011;9531;52.030;4.380;2023-02-13T04:00:52;38.00;;;18.85;;
18806;SDS011;9531;52.030;4.380;2023-02-13T04:03:23;35.85;;;18.75;;
18806;SDS011;9531;52.030;4.380;2023-02-13T04:05:54;41.30;;;21.10;;
18806;SDS011;9531;52.030;4.380;2023-02-13T04:08:28;39.80;;;20.05;;
18806;SDS011;9531;52.030;4.380;2023-02-13T04:10:57;39.35;;;20.02;;
18806;SDS011;9531;52.030;4.380;2023-02-13T04:13:30;40.42;;;20.02;;
18806;SDS011;9531;52.030;4.380;2023-02-13T04:16:02;44.10;;;20.55;;
18806;SDS011;9531;52.030;4.380;2023-02-13T04:18:36;41.58;;;20.98;;
18806;SDS011;9531;52.030;4.380;2023-02-13T04:21:05;38.95;;;19.90;;
18806;SDS011;9531;52.030;4.380;2023-02-13T04:23:34;42.15;;;19.70;;
18806;SDS011;9531;52.030;4.380;2023-02-13T04:26:03;36.30;;;18.65;;
18806;SDS011;9531;52.030;4.380;2023-02-13T04:28:33;40.40;;;19.88;;
18806;SDS011;9531;52.030;4.380;2023-02-13T04:31:01;37.25;;;18.17;;
18806;SDS011;9531;52.030;4.380;2023-02-13T04:33:28;33.72;;;17.90;;
18806;SDS011;9531;52.030;4.380;2023-02-13T04:35:55;42.63;;;21.00;;
18806;SDS011;9531;52.030;4.380;2023-02-13T04:38:22;42.63;;;19.88;;
18806;SDS011;9531;52.030;4.380;2023-02-13T04:40:52;46.83;;;21.90;;
18806;SDS011;9531;52.030;4.380;2023-02-13T04:43:19;42.50;;;20.17;;
18806;SDS011;9531;52.030;4.380;2023-02-13T04:45:46;42.53;;;19.40;;
18806;SDS011;9531;52.030;4.380;2023-02-13T04:48:16;41.05;;;20.65;;
18806;SDS011;9531;52.030;4.380;2023-02-13T04:50:43;35.15;;;18.42;;
18806;SDS011;9531;52.030;4.380;2023-02-13T04:53:14;38.38;;;19.20;;
18806;SDS011;9531;52.030;4.380;2023-02-13T04:55:41;39.22;;;19.30;;
18806;SDS011;9531;52.030;4.380;2023-02-13T04:58:12;41.28;;;20.40;;
18806;SDS011;9531;52.030;4.380;2023-02-13T05:00:40;40.50;;;19.92;;
18806;SDS011;9531;52.030;4.380;2023-02-13T05:03:07;41.95;;;19.52;;
18806;SDS011;9531;52.030;4.380;2023-02-13T05:05:37;38.03;;;19.58;;
18806;SDS011;9531;52.030;4.380;2023-02-13T05:08:05;41.75;;;21.17;;
18806;SDS011;9531;52.030;4.380;2023-02-13T05:10:33;43.03;;;21.08;;
18806;SDS011;9531;52.030;4.380;2023-02-13T05:13:02;39.80;;;20.65;;
18806;SDS011;9531;52.030;4.380;2023-02-13T05:15:31;38.40;;;20.27;;
18806;SDS011;9531;52.030;4.380;2023-02-13T05:17:58;41.92;;;20.52;;
18806;SDS011;9531;52.030;4.380;2023-02-13T05:20:27;41.88;;;20.88;;
18806;SDS011;9531;52.030;4.380;2023-02-13T05:22:54;44.80;;;21.92;;
18806;SDS011;9531;52.030;4.380;2023-02-13T05:25:39;42.47;;;20.58;;
18806;SDS011;9531;52.030;4.380;2023-02-13T05:28:07;38.78;;;20.00;;
18806;SDS011;9531;52.030;4.380;2023-02-13T05:30:55;39.15;;;19.20;;
18806;SDS011;9531;52.030;4.380;2023-02-13T05:33:28;39.53;;;21.15;;
18806;SDS011;9531;52.030;4.380;2023-02-13T05:35:55;43.85;;;20.98;;
18806;SDS011;9531;52.030;4.380;2023-02-13T05:38:23;43.67;;;20.73;;
18806;SDS011;9531;52.030;4.380;2023-02-13T05:40:50;44.22;;;21.02;;
18806;SDS011;9531;52.030;4.380;2023-02-13T05:43:18;40.88;;;20.08;;
18806;SDS011;9531;52.030;4.380;2023-02-13T05:45:46;40.17;;;19.60;;
18806;SDS011;9531;52.030;4.380;2023-02-13T05:48:14;41.65;;;20.40;;
18806;SDS011;9531;52.030;4.380;2023-02-13T05:50:42;40.83;;;19.00;;
18806;SDS011;9531;52.030;4.380;2023-02-13T05:53:09;36.25;;;18.83;;
18806;SDS011;9531;52.030;4.380;2023-02-13T05:55:37;39.72;;;19.13;;
18806;SDS011;9531;52.030;4.380;2023-02-13T05:58:04;39.88;;;19.65;;
18806;SDS011;9531;52.030;4.380;2023-02-13T06:00:33;37.42;;;19.23;;
18806;SDS011;9531;52.030;4.380;2023-02-13T06:03:02;38.08;;;18.48;;
18806;SDS011;9531;52.030;4.380;2023-02-13T06:05:32;33.25;;;17.50;;
18806;SDS011;9531;52.030;4.380;2023-02-13T06:07:59;42.10;;;20.40;;
18806;SDS011;9531;52.030;4.380;2023-02-13T06:10:26;31.38;;;16.42;;
18806;SDS011;9531;52.030;4.380;2023-02-13T06:12:53;38.22;;;19.20;;
18806;SDS011;9531;52.030;4.380;2023-02-13T06:15:26;34.15;;;16.50;;
18806;SDS011;9531;52.030;4.380;2023-02-13T06:17:53;31.70;;;16.13;;
18806;SDS011;9531;52.030;4.380;2023-02-13T06:20:20;37.97;;;17.90;;
18806;SDS011;9531;52.030;4.380;2023-02-13T06:22:49;41.63;;;19.80;;
18806;SDS011;9531;52.030;4.380;2023-02-13T06:27:46;41.10;;;19.60;;
18806;SDS011;9531;52.030;4.380;2023-02-13T06:30:15;41.53;;;19.48;;
18806;SDS011;9531;52.030;4.380;2023-02-13T06:32:42;39.70;;;18.13;;
18806;SDS011;9531;52.030;4.380;2023-02-13T06:35:11;37.05;;;18.45;;
18806;SDS011;9531;52.030;4.380;2023-02-13T06:37:38;36.78;;;17.40;;
18806;SDS011;9531;52.030;4.380;2023-02-13T06:40:09;41.08;;;19.67;;
18806;SDS011;9531;52.030;4.380;2023-02-13T06:42:37;35.60;;;18.25;;
18806;SDS011;9531;52.030;4.380;2023-02-13T06:45:06;38.80;;;18.95;;
18806;SDS011;9531;52.030;4.380;2023-02-13T06:47:34;40.90;;;18.85;;
18806;SDS011;9531;52.030;4.380;2023-02-13T06:50:01;36.25;;;18.88;;
18806;SDS011;9531;52.030;4.380;2023-02-13T06:52:28;36.10;;;18.80;;
18806;SDS011;9531;52.030;4.380;2023-02-13T06:54:56;39.03;;;18.85;;
18806;SDS011;9531;52.030;4.380;2023-02-13T06:57:25;34.78;;;17.67;;
18806;SDS011;9531;52.030;4.380;2023-02-13T06:59:54;38.95;;;18.83;;
18806;SDS011;9531;52.030;4.380;2023-02-13T07:02:21;39.83;;;18.15;;
18806;SDS011;9531;52.030;4.380;2023-02-13T07:04:48;36.65;;;18.65;;
18806;SDS011;9531;52.030;4.380;2023-02-13T07:07:15;35.05;;;18.08;;
18806;SDS011;9531;52.030;4.380;2023-02-13T07:09:42;42.03;;;18.38;;
18806;SDS011;9531;52.030;4.380;2023-02-13T07:12:08;37.47;;;18.63;;
18806;SDS011;9531;52.030;4.380;2023-02-13T07:14:38;39.75;;;19.55;;
18806;SDS011;9531;52.030;4.380;2023-02-13T07:17:06;35.65;;;17.67;;
18806;SDS011;9531;52.030;4.380;2023-02-13T07:19:35;42.03;;;19.40;;
18806;SDS011;9531;52.030;4.380;2023-02-13T07:22:02;34.97;;;17.33;;
18806;SDS011;9531;52.030;4.380;2023-02-13T07:24:29;40.17;;;19.38;;
18806;SDS011;9531;52.030;4.380;2023-02-13T07:26:57;41.88;;;19.80;;
18806;SDS011;9531;52.030;4.380;2023-02-13T07:29:24;40.78;;;19.23;;
18806;SDS011;9531;52.030;4.380;2023-02-13T07:31:56;39.97;;;19.30;;
18806;SDS011;9531;52.030;4.380;2023-02-13T07:34:24;35.38;;;18.33;;
18806;SDS011;9531;52.030;4.380;2023-02-13T07:36:51;41.20;;;19.58;;
18806;SDS011;9531;52.030;4.380;2023-02-13T07:39:18;36.83;;;18.45;;
18806;SDS011;9531;52.030;4.380;2023-02-13T07:41:46;37.90;;;18.75;;
18806;SDS011;9531;52.030;4.380;2023-02-13T07:44:13;41.45;;;19.73;;
18806;SDS011;9531;52.030;4.380;2023-02-13T07:46:40;42.00;;;20.90;;
18806;SDS011;9531;52.030;4.380;2023-02-13T07:49:09;39.58;;;19.90;;
18806;SDS011;9531;52.030;4.380;2023-02-13T07:51:36;40.60;;;18.75;;
18806;SDS011;9531;52.030;4.380;2023-02-13T07:56:33;41.67;;;19.70;;
18806;SDS011;9531;52.030;4.380;2023-02-13T07:59:00;38.08;;;19.40;;
18806;SDS011;9531;52.030;4.380;2023-02-13T08:01:27;38.65;;;19.25;;
18806;SDS011;9531;52.030;4.380;2023-02-13T08:03:54;39.30;;;19.00;;
18806;SDS011;9531;52.030;4.380;2023-02-13T08:06:22;38.72;;;20.15;;
18806;SDS011;9531;52.030;4.380;2023-02-13T08:08:50;40.25;;;19.00;;
18806;SDS011;9531;52.030;4.380;2023-02-13T08:11:39;41.05;;;19.55;;
18806;SDS011;9531;52.030;4.380;2023-02-13T08:14:20;36.10;;;18.20;;
18806;SDS011;9531;52.030;4.380;2023-02-13T08:16:48;38.13;;;19.75;;
18806;SDS011;9531;52.030;4.380;2023-02-13T08:19:16;38.78;;;19.75;;
18806;SDS011;9531;52.030;4.380;2023-02-13T08:21:50;40.50;;;20.55;;
18806;SDS011;9531;52.030;4.380;2023-02-13T08:24:18;38.22;;;19.08;;
18806;SDS011;9531;52.030;4.380;2023-02-13T08:26:51;37.35;;;18.17;;
18806;SDS011;9531;52.030;4.380;2023-02-13T08:29:18;36.55;;;18.80;;
18806;SDS011;9531;52.030;4.380;2023-02-13T08:31:46;40.80;;;20.05;;
18806;SDS011;9531;52.030;4.380;2023-02-13T08:34:13;37.22;;;18.67;;
18806;SDS011;9531;52.030;4.380;2023-02-13T08:36:40;37.83;;;19.33;;
18806;SDS011;9531;52.030;4.380;2023-02-13T08:39:09;41.95;;;20.73;;
18806;SDS011;9531;52.030;4.380;2023-02-13T08:41:36;43.40;;;20.55;;
18806;SDS011;9531;52.030;4.380;2023-02-13T08:44:03;37.45;;;19.45;;
18806;SDS011;9531;52.030;4.380;2023-02-13T08:46:30;39.33;;;20.55;;
18806;SDS011;9531;52.030;4.380;2023-02-13T08:48:57;36.05;;;18.38;;
18806;SDS011;9531;52.030;4.380;2023-02-13T08:51:24;42.03;;;20.83;;
18806;SDS011;9531;52.030;4.380;2023-02-13T08:53:51;40.08;;;20.45;;
18806;SDS011;9531;52.030;4.380;2023-02-13T08:56:19;43.97;;;22.15;;
18806;SDS011;9531;52.030;4.380;2023-02-13T08:58:47;42.28;;;21.67;;
18806;SDS011;9531;52.030;4.380;2023-02-13T09:01:15;43.88;;;22.35;;
18806;SDS011;9531;52.030;4.380;2023-02-13T09:03:43;44.47;;;22.92;;
18806;SDS011;9531;52.030;4.380;2023-02-13T09:06:10;36.67;;;19.05;;
18806;SDS011;9531;52.030;4.380;2023-02-13T09:08:37;39.75;;;20.63;;
18806;SDS011;9531;52.030;4.380;2023-02-13T09:11:04;37.38;;;19.50;;
18806;SDS011;9531;52.030;4.380;2023-02-13T09:13:33;38.88;;;20.88;;
18806;SDS011;9531;52.030;4.380;2023-02-13T09:16:04;38.75;;;19.13;;
18806;SDS011;9531;52.030;4.380;2023-02-13T09:18:33;37.13;;;20.15;;
18806;SDS011;9531;52.030;4.380;2023-02-13T09:21:03;42.45;;;22.63;;
18806;SDS011;9531;52.030;4.380;2023-02-13T09:23:35;42.50;;;22.15;;
18806;SDS011;9531;52.030;4.380;2023-02-13T09:26:05;31.65;;;18.15;;
18806;SDS011;9531;52.030;4.380;2023-02-13T09:28:34;34.13;;;17.67;;
18806;SDS011;9531;52.030;4.380;2023-02-13T09:31:03;39.28;;;20.77;;
18806;SDS011;9531;52.030;4.380;2023-02-13T09:33:31;41.85;;;22.58;;
18806;SDS011;9531;52.030;4.380;2023-02-13T09:36:02;35.65;;;19.73;;
18806;SDS011;9531;52.030;4.380;2023-02-13T09:38:29;38.40;;;22.50;;
18806;SDS011;9531;52.030;4.380;2023-02-13T09:40:57;39.72;;;21.08;;
18806;SDS011;9531;52.030;4.380;2023-02-13T09:43:29;45.25;;;23.02;;
18806;SDS011;9531;52.030;4.380;2023-02-13T09:46:00;39.88;;;21.02;;
18806;SDS011;9531;52.030;4.380;2023-02-13T09:48:34;42.00;;;22.67;;
18806;SDS011;9531;52.030;4.380;2023-02-13T09:51:02;39.72;;;21.83;;
18806;SDS011;9531;52.030;4.380;2023-02-13T09:53:30;37.65;;;19.85;;
18806;SDS011;9531;52.030;4.380;2023-02-13T09:56:04;35.95;;;19.00;;
18806;SDS011;9531;52.030;4.380;2023-02-13T09:58:40;34.05;;;19.50;;
18806;SDS011;9531;52.030;4.380;2023-02-13T10:01:22;35.05;;;18.55;;
18806;SDS011;9531;52.030;4.380;2023-02-13T10:07:10;39.50;;;20.42;;
18806;SDS011;9531;52.030;4.380;2023-02-13T10:09:47;45.80;;;23.85;;
18806;SDS011;9531;52.030;4.380;2023-02-13T10:12:26;41.22;;;21.80;;
18806;SDS011;9531;52.030;4.380;2023-02-13T10:15:14;33.47;;;18.85;;
18806;SDS011;9531;52.030;4.380;2023-02-13T10:17:49;44.03;;;23.85;;
18806;SDS011;9531;52.030;4.380;2023-02-13T10:20:23;40.55;;;22.77;;
18806;SDS011;9531;52.030;4.380;2023-02-13T10:22:54;35.58;;;21.58;;
18806;SDS011;9531;52.030;4.380;2023-02-13T10:25:26;41.03;;;22.85;;
18806;SDS011;9531;52.030;4.380;2023-02-13T10:27:59;36.70;;;22.38;;
18806;SDS011;9531;52.030;4.380;2023-02-13T10:30:40;35.83;;;20.75;;
18806;SDS011;9531;52.030;4.380;2023-02-13T10:33:15;34.00;;;18.92;;
18806;SDS011;9531;52.030;4.380;2023-02-13T10:35:47;31.83;;;18.20;;
18806;SDS011;9531;52.030;4.380;2023-02-13T10:38:20;32.90;;;19.58;;
18806;SDS011;9531;52.030;4.380;2023-02-13T10:40:56;31.48;;;18.88;;
18806;SDS011;9531;52.030;4.380;2023-02-13T10:43:31;33.88;;;20.92;;
18806;SDS011;9531;52.030;4.380;2023-02-13T10:46:11;30.17;;;18.25;;
18806;SDS011;9531;52.030;4.380;2023-02-13T10:48:57;33.63;;;19.70;;
18806;SDS011;9531;52.030;4.380;2023-02-13T10:51:34;29.88;;;17.65;;
18806;SDS011;9531;52.030;4.380;2023-02-13T10:54:18;32.30;;;19.15;;
18806;SDS011;9531;52.030;4.380;2023-02-13T10:56:57;32.22;;;19.55;;
18806;SDS011;9531;52.030;4.380;2023-02-13T10:59:39;31.65;;;19.08;;
18806;SDS011;9531;52.030;4.380;2023-02-13T11:02:28;29.65;;;18.02;;
18806;SDS011;9531;52.030;4.380;2023-02-13T11:04:59;27.83;;;17.33;;
18806;SDS011;9531;52.030;4.380;2023-02-13T11:07:27;28.67;;;18.75;;
18806;SDS011;9531;52.030;4.380;2023-02-13T11:09:58;27.63;;;17.60;;
18806;SDS011;9531;52.030;4.380;2023-02-13T11:12:31;30.17;;;19.45;;
18806;SDS011;9531;52.030;4.380;2023-02-13T11:14:59;28.95;;;17.92;;
18806;SDS011;9531;52.030;4.380;2023-02-13T11:17:29;31.40;;;18.77;;
18806;SDS011;9531;52.030;4.380;2023-02-13T11:19:59;27.02;;;17.08;;
18806;SDS011;9531;52.030;4.380;2023-02-13T11:22:31;28.65;;;17.92;;
18806;SDS011;9531;52.030;4.380;2023-02-13T11:25:01;28.70;;;17.40;;
18806;SDS011;9531;52.030;4.380;2023-02-13T11:27:32;27.85;;;18.52;;
18806;SDS011;9531;52.030;4.380;2023-02-13T11:30:01;26.73;;;17.80;;
18806;SDS011;9531;52.030;4.380;2023-02-13T11:32:31;30.20;;;17.95;;
18806;SDS011;9531;52.030;4.380;2023-02-13T11:35:19;34.25;;;19.35;;
18806;SDS011;9531;52.030;4.380;2023-02-13T11:40:36;30.52;;;18.90;;
18806;SDS011;9531;52.030;4.380;2023-02-13T11:43:05;29.20;;;17.40;;
18806;SDS011;9531;52.030;4.380;2023-02-13T11:45:33;29.88;;;18.60;;
18806;SDS011;9531;52.030;4.380;2023-02-13T11:48:00;27.65;;;17.73;;
18806;SDS011;9531;52.030;4.380;2023-02-13T11:50:36;25.73;;;17.05;;
18806;SDS011;9531;52.030;4.380;2023-02-13T11:53:04;29.45;;;17.63;;
18806;SDS011;9531;52.030;4.380;2023-02-13T11:55:33;28.98;;;17.50;;
18806;SDS011;9531;52.030;4.380;2023-02-13T11:58:03;30.02;;;17.77;;
18806;SDS011;9531;52.030;4.380;2023-02-13T12:00:46;31.27;;;18.35;;
18806;SDS011;9531;52.030;4.380;2023-02-13T12:03:24;30.40;;;19.50;;
18806;SDS011;9531;52.030;4.380;2023-02-13T12:06:01;25.70;;;16.67;;
18806;SDS011;9531;52.030;4.380;2023-02-13T12:08:32;26.25;;;16.70;;
18806;SDS011;9531;52.030;4.380;2023-02-13T12:11:00;29.90;;;18.63;;
18806;SDS011;9531;52.030;4.380;2023-02-13T12:13:36;29.92;;;19.02;;
18806;SDS011;9531;52.030;4.380;2023-02-13T12:16:10;26.35;;;16.83;;
18806;SDS011;9531;52.030;4.380;2023-02-13T12:18:43;24.90;;;16.17;;
18806;SDS011;9531;52.030;4.380;2023-02-13T12:21:16;25.27;;;16.42;;
18806;SDS011;9531;52.030;4.380;2023-02-13T12:23:54;25.25;;;17.15;;
18806;SDS011;9531;52.030;4.380;2023-02-13T12:26:30;25.30;;;16.27;;
18806;SDS011;9531;52.030;4.380;2023-02-13T12:29:08;22.75;;;15.25;;
18806;SDS011;9531;52.030;4.380;2023-02-13T12:31:52;22.60;;;14.00;;
18806;SDS011;9531;52.030;4.380;2023-02-13T12:34:31;26.10;;;14.70;;
18806;SDS011;9531;52.030;4.380;2023-02-13T12:37:21;25.08;;;15.82;;
18806;SDS011;9531;52.030;4.380;2023-02-13T12:40:02;28.08;;;16.58;;
18806;SDS011;9531;52.030;4.380;2023-02-13T12:43:03;25.70;;;14.93;;
18806;SDS011;9531;52.030;4.380;2023-02-13T12:45:45;22.95;;;14.30;;
18806;SDS011;9531;52.030;4.380;2023-02-13T12:48:21;24.10;;;15.82;;
18806;SDS011;9531;52.030;4.380;2023-02-13T12:51:02;25.35;;;13.52;;
18806;SDS011;9531;52.030;4.380;2023-02-13T12:53:45;20.42;;;13.05;;
18806;SDS011;9531;52.030;4.380;2023-02-13T12:56:33;21.27;;;12.43;;
18806;SDS011;9531;52.030;4.380;2023-02-13T12:59:23;18.85;;;12.18;;
18806;SDS011;9531;52.030;4.380;2023-02-13T13:05:13;20.50;;;12.57;;
18806;SDS011;9531;52.030;4.380;2023-02-13T13:07:54;21.08;;;11.73;;
18806;SDS011;9531;52.030;4.380;2023-02-13T13:10:52;17.85;;;9.90;;
18806;SDS011;9531;52.030;4.380;2023-02-13T13:13:31;20.40;;;11.90;;
18806;SDS011;9531;52.030;4.380;2023-02-13T13:16:11;21.38;;;13.05;;
18806;SDS011;9531;52.030;4.380;2023-02-13T13:18:51;14.50;;;9.57;;
18806;SDS011;9531;52.030;4.380;2023-02-13T13:21:34;17.35;;;11.10;;
18806;SDS011;9531;52.030;4.380;2023-02-13T13:24:09;17.50;;;11.32;;
18806;SDS011;9531;52.030;4.380;2023-02-13T13:26:49;19.50;;;11.90;;
18806;SDS011;9531;52.030;4.380;2023-02-13T13:29:18;16.45;;;10.48;;
18806;SDS011;9531;52.030;4.380;2023-02-13T13:31:49;16.63;;;10.73;;
18806;SDS011;9531;52.030;4.380;2023-02-13T13:34:21;19.92;;;11.43;;
18806;SDS011;9531;52.030;4.380;2023-02-13T13:36:52;16.63;;;10.35;;
18806;SDS011;9531;52.030;4.380;2023-02-13T13:39:28;16.20;;;9.05;;
18806;SDS011;9531;52.030;4.380;2023-02-13T13:42:05;19.50;;;10.38;;
18806;SDS011;9531;52.030;4.380;2023-02-13T13:44:41;17.30;;;11.27;;
18806;SDS011;9531;52.030;4.380;2023-02-13T13:47:38;16.52;;;8.52;;
18806;SDS011;9531;52.030;4.380;2023-02-13T13:50:16;18.80;;;11.05;;
18806;SDS011;9531;52.030;4.380;2023-02-13T13:58:32;14.38;;;9.23;;
18806;SDS011;9531;52.030;4.380;2023-02-13T14:03:58;15.07;;;9.73;;
18806;SDS011;9531;52.030;4.380;2023-02-13T14:06:26;18.05;;;10.95;;
18806;SDS011;9531;52.030;4.380;2023-02-13T14:18:15;13.32;;;9.23;;
18806;SDS011;9531;52.030;4.380;2023-02-13T14:20:51;16.92;;;10.57;;
18806;SDS011;9531;52.030;4.380;2023-02-13T14:29:21;16.00;;;9.45;;
18806;SDS011;9531;52.030;4.380;2023-02-13T14:34:50;14.88;;;9.07;;
18806;SDS011;9531;52.030;4.380;2023-02-13T14:37:21;15.40;;;8.25;;
18806;SDS011;9531;52.030;4.380;2023-02-13T14:40:11;18.05;;;11.52;;
18806;SDS011;9531;52.030;4.380;2023-02-13T14:42:54;13.70;;;9.70;;
18806;SDS011;9531;52.030;4.380;2023-02-13T14:45:26;14.02;;;8.27;;
18806;SDS011;9531;52.030;4.380;2023-02-13T14:47:57;19.42;;;11.30;;
18806;SDS011;9531;52.030;4.380;2023-02-13T14:50:34;17.10;;;10.18;;
18806;SDS011;9531;52.030;4.380;2023-02-13T14:53:14;16.55;;;9.98;;
18806;SDS011;9531;52.030;4.380;2023-02-13T14:55:46;13.60;;;7.93;;
18806;SDS011;9531;52.030;4.380;2023-02-13T14:58:21;13.02;;;8.02;;
18806;SDS011;9531;52.030;4.380;2023-02-13T15:00:52;17.50;;;10.27;;
18806;SDS011;9531;52.030;4.380;2023-02-13T15:03:26;17.30;;;10.63;;
18806;SDS011;9531;52.030;4.380;2023-02-13T15:05:58;13.77;;;8.93;;
18806;SDS011;9531;52.030;4.380;2023-02-13T15:08:31;16.55;;;10.15;;
18806;SDS011;9531;52.030;4.380;2023-02-13T15:11:01;14.60;;;8.93;;
18806;SDS011;9531;52.030;4.380;2023-02-13T15:13:31;14.55;;;8.80;;
18806;SDS011;9531;52.030;4.380;2023-02-13T15:16:02;13.63;;;7.85;;
18806;SDS011;9531;52.030;4.380;2023-02-13T15:18:34;13.30;;;7.88;;
18806;SDS011;9531;52.030;4.380;2023-02-13T15:21:09;13.10;;;8.07;;
18806;SDS011;9531;52.030;4.380;2023-02-13T15:23:43;15.02;;;8.63;;
18806;SDS011;9531;52.030;4.380;2023-02-13T15:26:17;15.30;;;9.18;;
18806;SDS011;9531;52.030;4.380;2023-02-13T15:28:56;14.57;;;8.40;;
18806;SDS011;9531;52.030;4.380;2023-02-13T15:31:25;14.60;;;8.60;;
18806;SDS011;9531;52.030;4.380;2023-02-13T15:33:57;12.07;;;7.45;;
18806;SDS011;9531;52.030;4.380;2023-02-13T15:36:34;14.60;;;8.95;;
18806;SDS011;9531;52.030;4.380;2023-02-13T15:39:06;16.05;;;9.15;;
18806;SDS011;9531;52.030;4.380;2023-02-13T15:41:42;15.43;;;8.45;;
18806;SDS011;9531;52.030;4.380;2023-02-13T15:44:15;14.98;;;7.82;;
18806;SDS011;9531;52.030;4.380;2023-02-13T15:46:46;14.55;;;8.82;;
18806;SDS011;9531;52.030;4.380;2023-02-13T15:49:16;12.88;;;6.97;;
18806;SDS011;9531;52.030;4.380;2023-02-13T15:51:47;12.18;;;7.53;;
18806;SDS011;9531;52.030;4.380;2023-02-13T15:54:22;13.18;;;7.65;;
18806;SDS011;9531;52.030;4.380;2023-02-13T15:56:51;14.68;;;8.05;;